Time;durP1;ratioP1;P1;durP2;ratioP2;P2;SDS_P1;SDS_P2;PMS_P1;PMS_P2;Temp;Humidity;BMP_temperature;BMP_pressure;BME280_temperature;BME280_humidity;BME280_pressure;Samples;Min_cycle;Max_cycle;Signal;HPM_P1;HPM_P2
2021/09/10 00:01:08;;;;;;;5.93;5.28;;;;;;;19.46;96.69;99739.84;5074867;28;20040;-72
2021/09/10 00:03:35;;;;;;;8.68;5.05;;;;;;;19.47;96.62;99733.41;5074745;28;20040;-72
2021/09/10 00:06:04;;;;;;;8.70;5.55;;;;;;;19.48;96.32;99742.34;5075960;28;20425;-72
2021/09/10 00:08:30;;;;;;;9.18;5.50;;;;;;;19.45;96.44;99737.28;5074948;28;20072;-72
2021/09/10 00:10:57;;;;;;;8.00;5.30;;;;;;;19.45;96.96;99738.13;5075878;28;20049;-71
2021/09/10 00:13:24;;;;;;;8.27;5.35;;;;;;;19.45;96.95;99742.69;5074767;28;20049;-72
2021/09/10 00:15:58;;;;;;;5.97;5.35;;;;;;;19.45;96.56;99742.69;5074736;28;20124;-72
2021/09/10 00:18:26;;;;;;;8.27;5.80;;;;;;;19.40;96.16;99730.50;5074655;28;20045;-72
2021/09/10 00:20:54;;;;;;;7.00;5.32;;;;;;;19.44;96.52;99733.72;5074658;28;20090;-72
2021/09/10 00:23:20;;;;;;;6.85;5.97;;;;;;;19.45;96.99;99740.81;5075637;28;20055;-72
2021/09/10 00:25:47;;;;;;;6.63;5.90;;;;;;;19.45;96.92;99743.53;5057952;28;20135;-71
2021/09/10 00:28:14;;;;;;;6.75;5.13;;;;;;;19.36;97.07;99726.44;5075629;28;20044;-72
2021/09/10 00:30:41;;;;;;;6.15;5.55;;;;;;;19.41;97.06;99742.16;5075844;28;20430;-71
2021/09/10 00:33:07;;;;;;;8.45;5.57;;;;;;;19.38;97.16;99737.94;5074351;28;20067;-74
2021/09/10 00:35:34;;;;;;;6.90;5.18;;;;;;;19.35;97.55;99742.81;5075427;28;20318;-71
2021/09/10 00:38:01;;;;;;;7.95;5.35;;;;;;;19.36;97.81;99748.06;5075584;28;20341;-73
2021/09/10 00:40:28;;;;;;;6.22;5.63;;;;;;;19.37;97.58;99738.94;5075288;28;20123;-71
2021/09/10 00:42:55;;;;;;;8.50;5.65;;;;;;;19.35;97.92;99738.25;5075048;28;20098;-71
2021/09/10 00:45:22;;;;;;;8.50;5.45;;;;;;;19.40;97.49;99743.19;5075194;28;20119;-71
2021/09/10 00:47:48;;;;;;;7.15;5.20;;;;;;;19.36;97.85;99729.13;5074061;28;20041;-72
2021/09/10 00:50:15;;;;;;;7.32;5.82;;;;;;;19.32;97.76;99727.75;5074091;28;20106;-72
2021/09/10 00:52:43;;;;;;;8.32;6.30;;;;;;;19.34;97.87;99733.84;5074807;28;20048;-72
2021/09/10 00:55:11;;;;;;;8.30;5.97;;;;;;;19.23;97.88;99716.03;5073951;28;20098;-72
2021/09/10 00:57:38;;;;;;;13.38;5.97;;;;;;;19.37;97.37;99728.13;5075133;28;20393;-72
2021/09/10 01:00:05;;;;;;;7.72;5.57;;;;;;;19.40;97.82;99732.38;5075124;28;20045;-73
2021/09/10 01:02:32;;;;;;;6.78;5.40;;;;;;;19.34;97.96;99725.72;5073862;28;20040;-71
2021/09/10 01:05:01;;;;;;;7.55;5.85;;;;;;;19.30;98.29;99729.78;5074044;28;20040;-71
2021/09/10 01:07:28;;;;;;;7.32;5.75;;;;;;;19.37;97.82;99724.56;5075010;28;20059;-71
2021/09/10 01:09:56;;;;;;;7.97;5.88;;;;;;;19.27;98.15;99719.25;5074014;28;20040;-71
2021/09/10 01:12:23;;;;;;;8.57;5.85;;;;;;;19.35;97.95;99721.16;5074996;28;20336;-71
2021/09/10 01:14:52;;;;;;;7.70;6.00;;;;;;;19.34;97.91;99716.78;5075104;28;20070;-73
2021/09/10 01:17:19;;;;;;;11.07;5.47;;;;;;;19.37;97.76;99725.41;5075941;28;20047;-71
2021/09/10 01:19:46;;;;;;;7.55;5.50;;;;;;;19.34;98.02;99731.13;5083912;28;20530;-73
2021/09/10 01:22:13;;;;;;;8.75;5.32;;;;;;;19.12;98.19;99695.53;5090143;28;20051;-71
2021/09/10 01:25:13;;;;;;;7.32;5.18;;;;;;;19.23;98.09;99713.31;5071038;28;20048;-71
2021/09/10 01:27:43;;;;;;;7.80;5.20;;;;;;;19.32;97.99;99727.75;5075091;28;20049;-72
2021/09/10 01:30:12;;;;;;;8.07;5.60;;;;;;;19.32;98.00;99727.75;5074814;28;20049;-72
2021/09/10 01:32:39;;;;;;;7.10;4.97;;;;;;;19.32;97.79;99726.88;5073538;28;20418;-71
2021/09/10 01:35:07;;;;;;;7.43;4.95;;;;;;;19.32;98.04;99727.75;5074814;28;20099;-73
2021/09/10 01:37:34;;;;;;;5.88;4.65;;;;;;;19.27;98.03;99713.84;5074774;28;20040;-72
2021/09/10 01:40:03;;;;;;;9.80;5.07;;;;;;;19.27;98.58;99727.38;5073320;28;20049;-73
2021/09/10 01:42:30;;;;;;;8.23;5.60;;;;;;;19.26;98.56;99731.09;5074542;28;20114;-71
2021/09/10 01:44:57;;;;;;;7.78;5.25;;;;;;;19.22;98.96;99721.59;5074559;28;20128;-71
2021/09/10 01:47:24;;;;;;;7.03;5.22;;;;;;;19.25;98.49;99721.28;5074572;28;20178;-73
2021/09/10 01:49:51;;;;;;;9.10;5.38;;;;;;;19.20;99.29;99726.31;5074466;28;20052;-73
2021/09/10 01:52:18;;;;;;;7.05;5.32;;;;;;;19.11;98.88;99720.88;5074220;28;20053;-73
2021/09/10 01:54:45;;;;;;;7.28;5.55;;;;;;;19.12;99.21;99722.56;5075648;28;20048;-73
2021/09/10 01:57:11;;;;;;;7.47;5.25;;;;;;;19.08;99.02;99706.84;5077377;28;20392;-72
2021/09/10 01:59:43;;;;;;;7.03;5.65;;;;;;;19.16;98.61;99703.34;5060817;28;20040;-72
2021/09/10 02:02:11;;;;;;;5.82;4.95;;;;;;;19.16;98.79;99712.28;5069964;28;20040;-72
2021/09/10 02:04:38;;;;;;;5.72;5.13;;;;;;;19.27;98.37;99720.13;5058792;28;20090;-72
2021/09/10 02:07:05;;;;;;;6.25;4.85;;;;;;;19.29;98.37;99722.69;5058437;28;20118;-72
2021/09/10 02:09:33;;;;;;;6.25;5.00;;;;;;;19.26;98.34;99713.03;5058256;28;20049;-72
2021/09/10 02:12:00;;;;;;;6.82;4.63;;;;;;;19.26;98.47;99717.56;5058044;28;20087;-72
2021/09/10 02:14:27;;;;;;;6.60;5.40;;;;;;;19.24;98.53;99714.19;5058122;28;20045;-72
2021/09/10 02:16:55;;;;;;;7.57;5.45;;;;;;;19.21;98.39;99714.50;5058043;28;20044;-72
2021/09/10 02:19:21;;;;;;;5.20;4.70;;;;;;;19.23;98.89;99723.31;5040469;28;20041;-73
2021/09/10 02:21:49;;;;;;;6.35;5.18;;;;;;;19.26;98.40;99728.41;5058113;28;20055;-73
2021/09/10 02:24:17;;;;;;;7.40;5.03;;;;;;;19.13;98.79;99713.44;5024043;28;20469;-73
2021/09/10 02:26:44;;;;;;;9.43;5.10;;;;;;;19.20;98.89;99726.31;5056872;28;20048;-72
2021/09/10 02:29:11;;;;;;;6.57;5.07;;;;;;;19.17;99.23;99719.38;5057742;28;20170;-73
2021/09/10 02:31:40;;;;;;;7.88;5.32;;;;;;;19.13;99.55;99724.25;5057869;28;20037;-73
2021/09/10 02:34:07;;;;;;;7.32;5.43;;;;;;;19.13;99.20;99718.84;5040595;28;20140;-72
2021/09/10 02:36:34;;;;;;;6.53;4.40;;;;;;;19.03;99.99;99717.28;5057898;28;20041;-73
2021/09/10 02:39:05;;;;;;;7.70;4.65;;;;;;;19.13;99.68;99726.13;5056728;28;20041;-73
2021/09/10 02:41:35;;;;;;;5.68;5.03;;;;;;;19.08;99.76;99723.91;5057634;28;20346;-73
2021/09/10 02:44:04;;;;;;;6.70;5.10;;;;;;;19.05;99.79;99721.53;5057852;28;20356;-72
2021/09/10 02:46:31;;;;;;;6.72;4.90;;;;;;;19.03;100.00;99723.53;5057542;28;20095;-72
2021/09/10 02:48:58;;;;;;;8.88;5.00;;;;;;;19.02;100.00;99721.84;5056605;28;20041;-72
2021/09/10 02:51:25;;;;;;;6.28;4.85;;;;;;;18.99;100.00;99717.56;5057258;28;20047;-73
2021/09/10 02:53:52;;;;;;;7.68;4.82;;;;;;;18.98;100.00;99715.03;5057318;28;20053;-73
2021/09/10 02:56:19;;;;;;;6.13;5.50;;;;;;;18.98;100.00;99710.47;5057338;28;20065;-72
2021/09/10 02:58:46;;;;;;;6.70;5.10;;;;;;;18.89;100.00;99710.59;5056102;28;20053;-72
2021/09/10 03:01:14;;;;;;;7.13;4.75;;;;;;;18.96;100.00;99714.34;5056394;28;20071;-71
2021/09/10 03:03:41;;;;;;;5.15;4.35;;;;;;;18.95;100.00;99723.47;5057251;28;20396;-71
2021/09/10 03:06:10;;;;;;;7.05;4.88;;;;;;;18.87;100.00;99700.75;5055871;28;20094;-71
2021/09/10 03:08:36;;;;;;;7.05;5.45;;;;;;;18.74;100.00;99694.91;5056019;28;20123;-72
2021/09/10 03:11:03;;;;;;;7.65;4.57;;;;;;;18.87;100.00;99716.97;5057058;28;20047;-72
2021/09/10 03:13:30;;;;;;;7.22;5.10;;;;;;;18.83;100.00;99720.16;5057049;28;20331;-71
2021/09/10 03:15:57;;;;;;;8.98;4.82;;;;;;;18.80;100.00;99710.50;5056077;28;20052;-71
2021/09/10 03:18:24;;;;;;;4.93;4.47;;;;;;;18.70;100.00;99709.78;5056032;28;20040;-72
2021/09/10 03:20:51;;;;;;;7.70;5.30;;;;;;;18.73;100.00;99717.56;5056978;28;20457;-72
2021/09/10 03:23:18;;;;;;;8.35;4.68;;;;;;;18.71;100.00;99706.06;5056819;28;20106;-71
2021/09/10 03:25:45;;;;;;;5.82;4.93;;;;;;;18.55;100.00;99694.13;5056805;28;20147;-72
2021/09/10 03:28:11;;;;;;;5.68;5.10;;;;;;;18.64;100.00;99707.69;5055983;28;20048;-71
2021/09/10 03:30:39;;;;;;;6.70;4.63;;;;;;;18.61;100.00;99708.03;5055629;28;20437;-71
2021/09/10 03:33:06;;;;;;;5.70;4.85;;;;;;;18.56;100.00;99706.63;5056023;28;20056;-72
2021/09/10 03:35:33;;;;;;;8.27;5.00;;;;;;;18.58;100.00;99707.31;5057004;28;20434;-72
2021/09/10 03:38:00;;;;;;;6.80;5.13;;;;;;;18.54;100.00;99703.25;5057176;28;20049;-70
2021/09/10 03:40:31;;;;;;;5.65;5.15;;;;;;;18.57;100.00;99696.66;5060821;28;20048;-71
2021/09/10 03:42:58;;;;;;;6.35;5.18;;;;;;;18.56;100.00;99701.22;5065449;28;20048;-73
2021/09/10 03:45:25;;;;;;;8.13;5.00;;;;;;;18.53;100.00;99701.53;5073168;28;20144;-74
2021/09/10 03:47:52;;;;;;;6.50;5.03;;;;;;;18.45;100.00;99691.53;5096247;28;20048;-73
2021/09/10 03:50:18;;;;;;;8.80;4.78;;;;;;;18.34;100.00;99682.81;5109669;28;20063;-74
2021/09/10 03:52:45;;;;;;;7.25;5.00;;;;;;;18.43;100.00;99707.03;5074366;28;20051;-72
2021/09/10 03:55:15;;;;;;;6.20;5.00;;;;;;;18.42;100.00;99701.78;5077888;28;20445;-72
2021/09/10 03:57:42;;;;;;;6.47;4.88;;;;;;;18.40;100.00;99701.06;5077695;28;20068;-72
2021/09/10 04:00:10;;;;;;;8.82;5.45;;;;;;;18.36;100.00;99695.13;5089839;28;20417;-73
2021/09/10 04:02:39;;;;;;;7.38;5.05;;;;;;;18.38;100.00;99698.56;5076104;28;20096;-73
2021/09/10 04:05:07;;;;;;;6.75;5.07;;;;;;;18.36;100.00;99697.84;5076090;28;20136;-73
2021/09/10 04:07:35;;;;;;;7.35;5.53;;;;;;;18.38;100.00;99689.59;5076179;28;20311;-74
2021/09/10 04:10:03;;;;;;;6.65;5.30;;;;;;;18.37;100.00;99699.56;5058340;28;20044;-72
2021/09/10 04:12:30;;;;;;;7.53;4.93;;;;;;;18.27;100.00;99683.44;5074758;28;20036;-73
2021/09/10 04:14:57;;;;;;;8.55;5.00;;;;;;;18.24;100.00;99694.53;5075852;28;20074;-73
2021/09/10 04:17:24;;;;;;;7.70;5.20;;;;;;;18.29;100.00;99704.88;5074297;28;20114;-73
2021/09/10 04:19:51;;;;;;;6.00;4.40;;;;;;;18.25;100.00;99698.94;5071746;28;20056;-74
2021/09/10 04:22:19;;;;;;;9.30;4.72;;;;;;;18.24;100.00;99694.53;5075180;28;20383;-73
2021/09/10 04:24:46;;;;;;;4.93;4.43;;;;;;;18.22;100.00;99696.56;5058063;28;20039;-73
2021/09/10 04:27:12;;;;;;;5.43;4.60;;;;;;;18.20;100.00;99690.47;5075389;28;20037;-73
2021/09/10 04:29:39;;;;;;;6.93;4.90;;;;;;;18.21;100.00;99694.88;5074056;28;20037;-75
2021/09/10 04:32:06;;;;;;;8.20;5.32;;;;;;;18.07;100.00;99687.31;5073840;28;20771;-73
2021/09/10 04:34:33;;;;;;;6.90;4.65;;;;;;;18.13;100.00;99702.88;5074915;28;20103;-71
2021/09/10 04:37:01;;;;;;;7.63;4.55;;;;;;;18.10;100.00;99700.50;5075181;28;20049;-74
2021/09/10 04:39:28;;;;;;;8.25;4.85;;;;;;;18.09;100.00;99705.03;5075264;28;20068;-73
2021/09/10 04:41:55;;;;;;;4.85;4.28;;;;;;;18.08;100.00;99697.94;5075033;28;20044;-76
2021/09/10 04:44:22;;;;;;;5.38;4.30;;;;;;;18.13;100.00;99702.88;5075121;28;20044;-72
2021/09/10 04:46:49;;;;;;;7.05;4.85;;;;;;;18.10;100.00;99697.78;5069015;28;20136;-70
2021/09/10 04:49:16;;;;;;;8.73;4.78;;;;;;;18.12;100.00;99707.44;5069394;28;20044;-72
2021/09/10 04:51:42;;;;;;;5.38;4.32;;;;;;;18.05;100.00;99699.09;5057119;28;20048;-71
2021/09/10 04:54:10;;;;;;;6.25;5.32;;;;;;;18.04;100.00;99704.63;5058225;28;20048;-70
2021/09/10 04:56:38;;;;;;;6.38;4.47;;;;;;;17.98;100.00;99689.88;5053937;28;20069;-75
2021/09/10 04:59:05;;;;;;;7.32;4.35;;;;;;;18.07;100.00;99715.16;5054874;28;20045;-77
2021/09/10 05:01:32;;;;;;;7.65;4.03;;;;;;;18.08;100.00;99711.44;5063585;28;20374;-73
2021/09/10 05:04:00;;;;;;;6.28;5.13;;;;;;;18.07;100.00;99712.44;5071006;28;20492;-73
2021/09/10 05:06:28;;;;;;;5.70;4.63;;;;;;;17.98;100.00;99697.16;5057106;28;20037;-77
2021/09/10 05:08:58;;;;;;;7.43;4.20;;;;;;;18.04;100.00;99718.13;5054793;28;20048;-73
2021/09/10 05:11:25;;;;;;;10.35;4.53;;;;;;;18.03;100.00;99719.97;5059654;28;20071;-71
2021/09/10 05:13:52;;;;;;;5.80;4.30;;;;;;;18.11;100.00;99713.00;5058216;28;20041;-71
2021/09/10 05:16:20;;;;;;;7.85;4.20;;;;;;;18.14;100.00;99710.81;5056177;28;20044;-73
2021/09/10 05:18:47;;;;;;;8.43;4.75;;;;;;;18.13;100.00;99730.75;5057467;28;20041;-71
2021/09/10 05:21:14;;;;;;;6.05;3.75;;;;;;;18.13;100.00;99724.47;5055134;28;20094;-73
2021/09/10 05:23:41;;;;;;;8.10;4.53;;;;;;;18.10;100.00;99727.50;5054439;28;20448;-71
2021/09/10 05:26:08;;;;;;;5.70;4.00;;;;;;;18.11;100.00;99729.19;5056966;28;20053;-74
2021/09/10 05:28:35;;;;;;;7.32;4.57;;;;;;;18.09;100.00;99734.72;5058268;28;20049;-73
2021/09/10 05:31:02;;;;;;;5.40;3.78;;;;;;;18.12;100.00;99736.28;5058432;28;20429;-75
2021/09/10 05:33:29;;;;;;;7.72;4.30;;;;;;;18.15;100.00;99725.19;5055058;28;20036;-73
2021/09/10 05:35:56;;;;;;;28.88;8.27;;;;;;;18.20;100.00;99731.00;5058353;28;20394;-75
2021/09/10 05:38:24;;;;;;;12.25;4.32;;;;;;;18.30;100.00;99729.03;5053740;28;20041;-73
2021/09/10 05:40:51;;;;;;;4.78;3.38;;;;;;;18.36;100.00;99724.03;5057442;28;20053;-74
2021/09/10 05:43:19;;;;;;;6.88;3.75;;;;;;;18.43;99.82;99736.75;5053015;28;20048;-72
2021/09/10 05:45:48;;;;;;;17.67;5.28;;;;;;;18.39;99.91;99711.06;5056049;28;20056;-73
2021/09/10 05:48:19;;;;;;;5.03;3.30;;;;;;;18.61;99.22;99738.59;5057064;28;20115;-76
2021/09/10 05:50:48;;;;;;;5.97;3.70;;;;;;;18.67;99.00;99745.22;5051535;28;20041;-75
2021/09/10 05:53:15;;;;;;;4.25;3.03;;;;;;;18.78;98.22;99753.06;5067775;28;20041;-76
2021/09/10 05:55:43;;;;;;;6.00;3.03;;;;;;;18.77;97.65;99745.97;5053576;28;20099;-72
2021/09/10 05:58:11;;;;;;;6.32;3.47;;;;;;;18.82;97.29;99759.03;5053034;28;20045;-75
2021/09/10 06:00:39;;;;;;;4.15;2.78;;;;;;;18.83;97.13;99753.47;5055293;28;20051;-74
2021/09/10 06:03:08;;;;;;;5.88;3.20;;;;;;;18.82;97.02;99768.00;5052368;28;20451;-72
2021/09/10 06:05:35;;;;;;;6.00;3.45;;;;;;;18.82;97.60;99770.69;5055662;28;20497;-73
2021/09/10 06:08:03;;;;;;;4.45;3.10;;;;;;;18.83;97.46;99777.78;5068572;28;20040;-71
2021/09/10 06:10:31;;;;;;;4.82;3.55;;;;;;;18.83;97.69;99779.63;5072375;28;20044;-74
2021/09/10 06:12:58;;;;;;;7.95;3.50;;;;;;;18.82;97.52;99768.00;5081645;28;20250;-74
2021/09/10 06:15:25;;;;;;;7.38;3.20;;;;;;;18.90;97.31;99778.00;5090023;28;20059;-73
2021/09/10 06:17:52;;;;;;;5.30;3.00;;;;;;;18.91;97.18;99784.28;5082293;28;20052;-73
2021/09/10 06:20:19;;;;;;;4.10;3.15;;;;;;;18.91;96.95;99778.84;5073779;28;20119;-73
2021/09/10 06:22:46;;;;;;;9.77;2.90;;;;;;;18.83;96.95;99766.97;5074233;28;20061;-74
2021/09/10 06:25:13;;;;;;;3.95;2.95;;;;;;;18.95;96.57;99774.84;5073091;28;20050;-73
2021/09/10 06:27:42;;;;;;;4.15;3.03;;;;;;;18.91;96.93;99778.84;5073812;28;20064;-73
2021/09/10 06:30:09;;;;;;;6.53;3.00;;;;;;;18.91;96.78;99782.41;5073507;28;20040;-73
2021/09/10 06:32:36;;;;;;;7.47;3.13;;;;;;;19.00;96.13;99786.88;5072143;28;20135;-73
2021/09/10 06:35:05;;;;;;;9.18;3.38;;;;;;;18.87;96.21;99765.63;5056200;28;20439;-74
2021/09/10 06:37:32;;;;;;;5.30;3.40;;;;;;;19.05;95.87;99789.13;5073645;28;20083;-73
2021/09/10 06:39:59;;;;;;;5.22;3.33;;;;;;;19.09;96.25;99790.53;5074995;28;20045;-74
2021/09/10 06:42:25;;;;;;;4.75;3.22;;;;;;;19.11;96.04;99791.22;5077499;28;20094;-72
2021/09/10 06:44:54;;;;;;;8.18;3.40;;;;;;;19.10;95.14;99783.25;5076368;28;20029;-74
2021/09/10 06:47:22;;;;;;;5.78;3.28;;;;;;;19.17;95.15;99794.28;5077361;28;20045;-73
2021/09/10 06:49:50;;;;;;;6.45;3.53;;;;;;;19.28;94.48;99791.28;5076873;28;20127;-73
2021/09/10 06:52:17;;;;;;;9.50;4.55;;;;;;;19.33;94.97;99794.38;5075366;28;20059;-73
2021/09/10 06:54:44;;;;;;;10.88;4.78;;;;;;;19.43;94.10;99799.69;5077031;28;20206;-73
2021/09/10 06:57:11;;;;;;;5.60;3.67;;;;;;;19.53;93.64;99794.16;5076199;28;20173;-72
2021/09/10 06:59:38;;;;;;;5.45;3.30;;;;;;;19.53;93.92;99792.31;5077084;28;20045;-73
2021/09/10 07:02:06;;;;;;;3.97;3.25;;;;;;;19.61;93.50;99801.47;5076840;28;20037;-72
2021/09/10 07:04:35;;;;;;;5.57;3.22;;;;;;;19.55;92.89;99775.88;5077075;28;20131;-72
2021/09/10 07:07:03;;;;;;;15.25;8.88;;;;;;;19.86;92.30;99788.88;5076741;28;20111;-70
2021/09/10 07:09:31;;;;;;;9.15;6.38;;;;;;;20.14;90.41;99804.06;5075745;28;20115;-70
2021/09/10 07:11:58;;;;;;;5.97;3.60;;;;;;;20.27;90.21;99809.00;5087994;28;20052;-69
2021/09/10 07:14:25;;;;;;;5.50;3.92;;;;;;;20.27;89.42;99806.31;5075887;28;20040;-71
2021/09/10 07:16:52;;;;;;;9.35;4.20;;;;;;;20.38;89.20;99802.44;5075231;28;20102;-70
2021/09/10 07:19:19;;;;;;;4.78;3.08;;;;;;;20.42;88.02;99810.06;5075759;28;20044;-69
2021/09/10 07:21:46;;;;;;;6.72;2.95;;;;;;;20.52;87.95;99815.31;5076233;28;20078;-69
2021/09/10 07:24:13;;;;;;;8.30;5.38;;;;;;;20.61;87.33;99813.47;5076199;28;20033;-70
2021/09/10 07:26:40;;;;;;;8.88;4.68;;;;;;;20.59;87.95;99820.94;5076214;28;20068;-69
2021/09/10 07:29:10;;;;;;;5.88;4.70;;;;;;;20.72;86.83;99818.56;5074584;28;20123;-69
2021/09/10 07:31:37;;;;;;;11.88;4.82;;;;;;;20.73;86.67;99816.69;5076361;28;20036;-69
2021/09/10 07:34:05;;;;;;;5.32;4.15;;;;;;;20.75;87.18;99817.38;5076211;28;20048;-69
2021/09/10 07:36:32;;;;;;;8.98;4.28;;;;;;;20.71;87.21;99813.31;5073511;28;20106;-68
2021/09/10 07:38:59;;;;;;;6.80;4.43;;;;;;;20.68;87.62;99824.47;5073496;28;20059;-69
2021/09/10 07:41:27;;;;;;;7.20;4.13;;;;;;;20.60;87.64;99822.63;5075628;28;20060;-70
2021/09/10 07:43:57;;;;;;;6.47;3.75;;;;;;;20.48;87.26;99833.78;5076223;28;20041;-69
2021/09/10 07:46:25;;;;;;;7.88;3.85;;;;;;;20.40;87.99;99833.78;5074507;28;20116;-69
2021/09/10 07:48:52;;;;;;;9.38;4.10;;;;;;;20.36;88.71;99821.56;5073706;28;20337;-69
2021/09/10 07:51:19;;;;;;;10.60;4.15;;;;;;;20.32;88.70;99823.75;5075039;28;20128;-69
2021/09/10 07:53:46;;;;;;;15.73;4.05;;;;;;;20.52;87.89;99836.19;5074636;28;20087;-68
2021/09/10 07:56:15;;;;;;;10.60;3.85;;;;;;;20.51;88.25;99840.75;5076347;28;20127;-70
2021/09/10 07:58:42;;;;;;;14.13;4.57;;;;;;;20.48;88.43;99841.91;5075317;28;20101;-71
2021/09/10 08:01:09;;;;;;;3.75;3.30;;;;;;;20.57;88.22;99850.06;5054107;28;20727;-71
2021/09/10 08:03:37;;;;;;;5.38;3.60;;;;;;;20.52;87.61;99849.72;5055845;28;20041;-75
2021/09/10 08:06:05;;;;;;;4.68;3.67;;;;;;;20.45;88.07;99853.09;5056127;28;20049;-75
2021/09/10 08:08:32;;;;;;;9.20;3.80;;;;;;;20.31;87.95;99851.88;5056026;28;20068;-75
2021/09/10 08:10:59;;;;;;;8.18;3.42;;;;;;;20.30;89.25;99860.16;5055068;28;20049;-74
2021/09/10 08:13:26;;;;;;;7.28;3.60;;;;;;;20.28;89.18;99864.91;5067053;28;20060;-74
2021/09/10 08:15:54;;;;;;;8.07;3.60;;;;;;;20.27;89.96;99865.91;5075584;28;20090;-74
2021/09/10 08:18:21;;;;;;;5.88;2.97;;;;;;;20.20;89.41;99863.88;5075925;28;20412;-74
2021/09/10 08:20:48;;;;;;;4.90;3.15;;;;;;;20.26;89.92;99872.34;5075916;28;20048;-74
2021/09/10 08:23:15;;;;;;;7.78;3.05;;;;;;;20.31;90.08;99867.28;5072720;28;20086;-74
2021/09/10 08:25:45;;;;;;;5.00;2.83;;;;;;;20.37;89.46;99866.63;5075295;28;20432;-74
2021/09/10 08:28:11;;;;;;;5.28;2.45;;;;;;;20.44;88.71;99873.06;5075706;28;20106;-74
2021/09/10 08:30:38;;;;;;;3.55;2.83;;;;;;;20.52;88.82;99872.25;5068676;28;20048;-74
2021/09/10 08:33:14;;;;;;;4.15;2.55;;;;;;;20.59;88.38;99880.59;5060891;28;20037;-73
2021/09/10 08:35:41;;;;;;;4.40;2.80;;;;;;;20.51;88.11;99864.28;5079949;28;20053;-73
2021/09/10 08:38:08;;;;;;;3.92;2.67;;;;;;;20.52;87.80;99847.84;5068205;28;20342;-74
2021/09/10 08:40:36;;;;;;;5.05;2.97;;;;;;;20.70;88.22;99882.13;5065528;28;20037;-74
2021/09/10 08:43:03;;;;;;;4.88;2.35;;;;;;;20.79;89.54;99888.38;5075296;28;20044;-75
2021/09/10 08:45:30;;;;;;;7.75;2.85;;;;;;;20.93;88.38;99887.78;5075670;28;20109;-74
2021/09/10 08:47:56;;;;;;;5.88;2.92;;;;;;;21.01;86.94;99887.78;5041108;28;20090;-74
2021/09/10 08:50:25;;;;;;;6.45;2.47;;;;;;;21.02;87.13;99889.47;5074194;28;20428;-74
2021/09/10 08:52:52;;;;;;;5.85;2.67;;;;;;;20.99;86.37;99888.97;5074984;28;20052;-74
2021/09/10 08:55:19;;;;;;;2.97;2.38;;;;;;;21.01;86.72;99889.63;5075093;28;20044;-73
2021/09/10 08:57:48;;;;;;;3.85;2.80;;;;;;;21.06;86.82;99889.13;5070295;28;20051;-75
2021/09/10 09:00:25;;;;;;;9.02;2.67;;;;;;;21.16;87.64;99889.81;5053999;28;20040;-75
2021/09/10 09:03:03;;;;;;;7.40;3.00;;;;;;;21.15;85.22;99888.13;5055175;28;20033;-75
2021/09/10 09:05:32;;;;;;;4.03;2.60;;;;;;;21.12;85.18;99880.31;5055096;28;20043;-74
2021/09/10 09:08:06;;;;;;;4.88;2.28;;;;;;;21.25;84.89;99893.38;5061063;28;20093;-74
2021/09/10 09:10:51;;;;;;;5.00;2.42;;;;;;;21.23;85.53;99898.97;5074745;28;20048;-74
2021/09/10 09:13:19;;;;;;;3.10;2.20;;;;;;;21.20;85.54;99893.03;5075078;28;20047;-74
2021/09/10 09:15:46;;;;;;;2.75;2.35;;;;;;;21.19;86.00;99894.88;5074965;28;20142;-73
2021/09/10 09:18:13;;;;;;;3.28;2.50;;;;;;;21.21;85.01;99898.31;5074484;28;20047;-74
2021/09/10 09:20:47;;;;;;;6.40;2.50;;;;;;;21.23;84.83;99898.97;5070080;28;20087;-75
2021/09/10 09:23:14;;;;;;;5.68;2.63;;;;;;;21.29;84.63;99894.72;5069725;28;20090;-73
2021/09/10 09:25:42;;;;;;;6.30;2.35;;;;;;;21.39;84.56;99900.81;5074134;28;20131;-74
2021/09/10 09:28:28;;;;;;;2.85;2.00;;;;;;;21.52;83.38;99907.59;5058197;28;20043;-74
2021/09/10 09:31:05;;;;;;;3.88;2.30;;;;;;;21.58;84.41;99891.47;5051948;28;20049;-77
2021/09/10 09:33:34;;;;;;;3.17;2.03;;;;;;;21.75;83.18;99891.47;5073155;28;20055;-74
2021/09/10 09:36:05;;;;;;;2.28;1.73;;;;;;;21.83;82.06;99898.72;5074180;28;20397;-73
2021/09/10 09:38:34;;;;;;;2.05;1.75;;;;;;;21.87;81.88;99902.81;5074092;28;20047;-74
2021/09/10 09:41:22;;;;;;;6.07;2.03;;;;;;;21.94;80.72;99905.66;5054566;28;20119;-73
2021/09/10 09:43:52;;;;;;;1.73;1.60;;;;;;;21.93;80.22;99901.25;5054610;28;20123;-74
2021/09/10 09:46:23;;;;;;;2.72;1.90;;;;;;;22.01;80.78;99900.38;5054613;28;20117;-74
2021/09/10 09:48:51;;;;;;;1.77;1.50;;;;;;;22.06;80.97;99898.81;5055321;28;20044;-74
2021/09/10 09:51:21;;;;;;;2.20;1.67;;;;;;;22.19;79.90;99902.84;5073735;28;20095;-72
2021/09/10 09:53:48;;;;;;;3.50;1.58;;;;;;;22.05;80.21;99897.13;5073919;28;20084;-72
2021/09/10 09:56:15;;;;;;;51.25;7.65;;;;;;;22.18;80.13;99903.88;5073766;28;20111;-73
2021/09/10 09:58:43;;;;;;;6.43;2.17;;;;;;;22.08;80.05;99894.09;5073739;28;20072;-73
2021/09/10 10:01:10;;;;;;;20.30;2.65;;;;;;;22.12;80.26;99902.72;5074078;28;20525;-73
2021/09/10 10:03:40;;;;;;;2.17;1.23;;;;;;;22.09;80.00;99898.50;5073797;28;20119;-72
2021/09/10 10:06:16;;;;;;;7.03;1.58;;;;;;;22.17;80.01;99897.59;5074225;28;20040;-72
2021/09/10 10:08:54;;;;;;;4.68;1.50;;;;;;;22.17;80.00;99904.91;5073284;28;20044;-76
2021/09/10 10:11:24;;;;;;;1.52;1.20;;;;;;;22.06;80.25;99903.44;5074414;28;20062;-76
2021/09/10 10:14:02;;;;;;;1.70;1.20;;;;;;;22.00;80.44;99904.13;5074561;28;20355;-73
2021/09/10 10:16:36;;;;;;;1.60;1.35;;;;;;;21.97;80.54;99910.75;5077025;28;20045;-71
2021/09/10 10:19:20;;;;;;;13.20;2.70;;;;;;;21.78;80.73;99899.25;5076841;28;20127;-73
2021/09/10 10:21:54;;;;;;;2.75;1.20;;;;;;;21.73;81.98;99898.09;5077038;28;20040;-73
2021/09/10 10:24:58;;;;;;;3.15;1.48;;;;;;;21.75;81.05;99907.78;5077393;28;20380;-75
2021/09/10 10:27:32;;;;;;;1.40;1.30;;;;;;;21.67;81.25;99910.44;5077339;28;20036;-76
2021/09/10 10:30:00;;;;;;;2.72;1.10;;;;;;;21.65;82.11;99904.34;5075283;28;20059;-71
2021/09/10 10:32:37;;;;;;;1.58;1.30;;;;;;;21.66;82.03;99908.75;5076673;28;20040;-75
2021/09/10 10:35:25;;;;;;;2.25;1.40;;;;;;;21.61;82.19;99905.72;5077277;28;20040;-75
2021/09/10 10:38:11;;;;;;;2.88;1.50;;;;;;;21.71;82.68;99903.69;5076141;28;20066;-73
2021/09/10 10:40:51;;;;;;;2.67;1.48;;;;;;;21.82;82.57;99903.34;5070801;28;20052;-73
2021/09/10 10:43:18;;;;;;;1.50;1.30;;;;;;;21.81;82.50;99900.78;5075013;28;20330;-74
2021/09/10 10:45:45;;;;;;;1.83;1.27;;;;;;;21.76;82.31;99897.72;5074749;28;20120;-73
2021/09/10 10:48:33;;;;;;;2.08;1.45;;;;;;;21.77;82.68;99905.72;5077029;28;20051;-74
2021/09/10 10:51:20;;;;;;;1.40;1.27;;;;;;;21.80;82.60;99899.94;5075675;28;20037;-74
2021/09/10 10:53:46;;;;;;;2.67;1.23;;;;;;;21.69;81.27;99898.44;5077276;28;20087;-70
2021/09/10 10:56:32;;;;;;;1.67;1.25;;;;;;;21.64;83.51;99895.38;5083233;28;20402;-72
2021/09/10 10:59:14;;;;;;;1.85;1.38;;;;;;;21.51;83.38;99895.06;5086654;28;20052;-73
2021/09/10 11:02:22;;;;;;;9.00;4.25;;;;;;;21.49;84.00;99876.22;5075666;28;20425;-72
2021/09/10 11:04:52;;;;;;;4.55;2.67;;;;;;;21.62;83.57;99880.28;5103041;28;20079;-72
2021/09/10 11:07:20;;;;;;;8.20;5.55;;;;;;;21.77;83.88;99884.00;5074286;28;20040;-70
2021/09/10 11:10:01;;;;;;;6.13;3.65;;;;;;;21.68;84.93;99869.53;5075282;28;20135;-72
2021/09/10 11:12:28;;;;;;;9.23;3.00;;;;;;;21.80;86.14;99882.78;5074565;28;20036;-69
2021/09/10 11:14:55;;;;;;;9.75;2.88;;;;;;;21.73;88.08;99885.34;5076413;28;20115;-71
2021/09/10 11:17:29;;;;;;;6.05;2.00;;;;;;;21.63;90.09;99887.38;5066652;28;20037;-70
2021/09/10 11:19:58;;;;;;;3.28;1.90;;;;;;;21.51;90.94;99887.75;5075745;28;20049;-71
2021/09/10 11:22:26;;;;;;;4.78;2.00;;;;;;;21.38;93.18;99882.00;5073814;28;20388;-71
2021/09/10 11:25:09;;;;;;;5.85;2.70;;;;;;;21.41;93.28;99870.81;5076653;28;20045;-71
2021/09/10 11:27:39;;;;;;;2.50;2.20;;;;;;;21.50;95.15;99875.19;5075302;28;20114;-72
2021/09/10 11:30:09;;;;;;;4.55;2.25;;;;;;;21.60;94.52;99872.28;5075194;28;20055;-72
2021/09/10 11:32:36;;;;;;;5.73;2.10;;;;;;;21.42;93.42;99862.47;5076210;28;20063;-72
2021/09/10 11:35:25;;;;;;;10.20;2.22;;;;;;;21.68;93.54;99847.81;5076275;28;20116;-72
2021/09/10 11:37:56;;;;;;;3.42;2.03;;;;;;;21.91;92.56;99863.41;5075514;28;20088;-72
2021/09/10 11:40:31;;;;;;;2.13;1.70;;;;;;;22.02;92.78;99867.63;5073286;28;20429;-71